createdAt,value
2023-07-15T00:01:35.910Z,7.88
2023-07-15T00:04:04.597Z,7.88
2023-07-15T00:06:34.239Z,6.97
2023-07-15T00:09:01.606Z,8.35
2023-07-15T00:11:32.088Z,5.43
2023-07-15T00:14:00.344Z,7.47
2023-07-15T00:16:29.385Z,10.00
2023-07-15T00:18:57.522Z,6.80
2023-07-15T00:21:27.828Z,7.65
2023-07-15T00:23:57.219Z,7.50
2023-07-15T00:26:27.136Z,5.15
2023-07-15T00:28:54.496Z,7.90
2023-07-15T00:31:23.540Z,8.05
2023-07-15T00:33:51.269Z,7.40
2023-07-15T00:36:18.874Z,5.85
2023-07-15T00:38:48.252Z,8.82
2023-07-15T00:46:45.684Z,7.32
2023-07-15T00:49:19.091Z,5.10
2023-07-15T00:51:51.605Z,7.10
2023-07-15T00:54:19.064Z,5.63
2023-07-15T00:56:46.540Z,6.20
2023-07-15T00:59:16.632Z,6.03
2023-07-15T01:01:45.746Z,6.18
2023-07-15T01:04:13.190Z,6.40
2023-07-15T01:06:43.086Z,6.45
2023-07-15T01:09:11.220Z,5.03
2023-07-15T01:11:38.658Z,8.35
2023-07-15T01:14:07.084Z,10.35
2023-07-15T01:16:34.549Z,4.90
2023-07-15T01:19:04.388Z,6.72
2023-07-15T01:21:35.793Z,7.53
2023-07-15T01:24:04.466Z,6.03
2023-07-15T01:26:32.877Z,8.25
2023-07-15T01:29:00.400Z,5.03
2023-07-15T01:31:29.436Z,7.47
2023-07-15T01:33:56.943Z,5.80
2023-07-15T01:36:26.039Z,5.72
2023-07-15T01:38:53.830Z,5.40
2023-07-15T01:41:21.497Z,6.13
2023-07-15T01:43:48.924Z,6.38
2023-07-15T01:46:16.615Z,5.88
2023-07-15T01:48:44.196Z,5.63
2023-07-15T01:51:12.749Z,6.60
2023-07-15T01:53:41.405Z,5.28
2023-07-15T01:56:08.966Z,6.40
2023-07-15T01:58:36.652Z,6.60
2023-07-15T02:01:04.174Z,5.75
2023-07-15T02:03:31.801Z,6.85
2023-07-15T02:05:59.532Z,6.85
2023-07-15T02:08:29.432Z,7.97
2023-07-15T02:10:56.821Z,7.97
2023-07-15T02:13:24.336Z,7.65
2023-07-15T02:15:52.082Z,8.20
2023-07-15T02:18:26.941Z,7.60
2023-07-15T02:20:54.522Z,7.20
2023-07-15T02:23:21.989Z,5.18
2023-07-15T02:25:49.416Z,5.20
2023-07-15T02:28:16.807Z,6.25
2023-07-15T02:30:44.517Z,6.85
2023-07-15T02:33:12.349Z,6.72
2023-07-15T02:35:41.865Z,9.65
2023-07-15T02:38:09.735Z,5.75
2023-07-15T02:40:37.770Z,7.03
2023-07-15T02:43:05.265Z,7.78
2023-07-15T02:45:33.560Z,6.65
2023-07-15T02:48:01.952Z,8.55
2023-07-15T02:50:29.454Z,6.90
2023-07-15T02:52:56.844Z,6.55
2023-07-15T02:55:24.398Z,6.57
2023-07-15T02:57:51.767Z,6.45
2023-07-15T03:00:19.510Z,6.30
2023-07-15T03:02:49.499Z,7.60
2023-07-15T03:05:18.011Z,6.90
2023-07-15T03:07:47.656Z,9.77
2023-07-15T03:10:16.663Z,8.30
2023-07-15T03:12:44.243Z,6.68
2023-07-15T03:15:11.650Z,8.40
2023-07-15T03:17:39.578Z,8.20
2023-07-15T03:20:20.864Z,8.20
2023-07-15T03:22:51.607Z,7.38
2023-07-15T03:25:21.395Z,9.35
2023-07-15T03:27:50.282Z,7.30
2023-07-15T03:30:18.962Z,8.43
2023-07-15T03:32:48.662Z,6.78
2023-07-15T03:35:17.339Z,7.57
2023-07-15T03:37:45.857Z,12.68
2023-07-15T03:40:14.092Z,10.15
2023-07-15T03:42:42.969Z,7.97
2023-07-15T03:45:11.374Z,10.85
2023-07-15T03:47:39.719Z,10.65
2023-07-15T03:50:10.929Z,9.25
2023-07-15T03:52:38.972Z,9.45
2023-07-15T03:55:07.552Z,8.52
2023-07-15T03:57:35.632Z,8.45
2023-07-15T04:00:08.091Z,8.68
2023-07-15T04:02:54.832Z,11.52
2023-07-15T04:05:22.548Z,6.93
2023-07-15T04:07:50.124Z,10.68
2023-07-15T04:10:17.678Z,7.22
2023-07-15T04:12:45.262Z,8.55
2023-07-15T04:15:12.927Z,7.32
2023-07-15T04:17:40.530Z,5.90
2023-07-15T04:20:13.871Z,6.82
2023-07-15T04:22:42.204Z,7.65
2023-07-15T04:25:12.632Z,10.75
2023-07-15T04:27:41.008Z,7.97
2023-07-15T04:30:11.019Z,6.45
2023-07-15T04:32:39.606Z,10.32
2023-07-15T04:35:07.661Z,9.25
2023-07-15T04:37:36.443Z,8.27
2023-07-15T04:40:05.659Z,8.30
2023-07-15T04:42:34.182Z,6.70
2023-07-15T04:45:03.517Z,7.82
2023-07-15T04:47:35.492Z,5.85
2023-07-15T04:50:04.129Z,8.18
2023-07-15T04:52:33.237Z,6.93
2023-07-15T04:55:01.155Z,6.30
2023-07-15T04:57:32.087Z,6.50
2023-07-15T05:00:01.032Z,7.55
2023-07-15T05:02:32.890Z,6.28
2023-07-15T05:05:00.452Z,4.18
2023-07-15T05:07:28.678Z,7.15
2023-07-15T05:09:58.537Z,6.70
2023-07-15T05:12:26.100Z,5.72
2023-07-15T05:14:54.439Z,4.45
2023-07-15T05:17:21.976Z,4.80
2023-07-15T05:19:49.628Z,3.50
2023-07-15T05:22:19.542Z,8.35
2023-07-15T05:24:47.334Z,6.95
2023-07-15T05:27:15.021Z,6.88
2023-07-15T05:29:42.591Z,6.53
2023-07-15T05:32:10.456Z,6.65
2023-07-15T05:34:38.158Z,5.70
2023-07-15T05:37:06.268Z,5.45
2023-07-15T05:39:34.225Z,6.30
2023-07-15T05:42:01.725Z,5.65
2023-07-15T05:44:29.304Z,6.63
2023-07-15T05:46:56.903Z,7.57
2023-07-15T05:49:24.753Z,4.93
2023-07-15T05:51:52.235Z,5.50
2023-07-15T05:54:19.853Z,4.80
2023-07-15T05:56:47.472Z,6.05
2023-07-15T05:59:15.138Z,6.40
2023-07-15T06:01:43.417Z,4.97
2023-07-15T06:04:11.181Z,5.07
2023-07-15T06:06:38.927Z,5.97
2023-07-15T06:09:06.615Z,6.85
2023-07-15T06:11:34.455Z,5.60
2023-07-15T06:14:04.851Z,4.90
2023-07-15T06:16:33.148Z,3.90
2023-07-15T06:19:00.853Z,6.22
2023-07-15T06:21:28.616Z,8.27
2023-07-15T06:23:56.584Z,6.85
2023-07-15T06:26:24.251Z,6.50
2023-07-15T06:28:51.849Z,7.90
2023-07-15T06:31:19.667Z,8.70
2023-07-15T06:33:49.505Z,10.57
2023-07-15T06:36:17.281Z,9.95
2023-07-15T06:38:44.953Z,10.68
2023-07-15T06:41:12.974Z,9.15
2023-07-15T06:43:40.786Z,9.75
2023-07-15T06:46:08.549Z,9.65
2023-07-15T06:48:36.153Z,9.02
2023-07-15T06:51:03.879Z,13.02
2023-07-15T06:53:31.644Z,15.45
2023-07-15T06:56:13.634Z,35.45
2023-07-15T06:58:46.307Z,48.20
2023-07-15T07:01:14.245Z,57.83
2023-07-15T07:03:42.184Z,77.70
2023-07-15T07:06:09.881Z,68.20
2023-07-15T07:08:37.601Z,55.50
2023-07-15T07:11:05.393Z,46.13
2023-07-15T07:13:32.926Z,35.65
2023-07-15T07:16:01.600Z,30.20
2023-07-15T07:18:29.505Z,30.33
2023-07-15T07:20:58.359Z,27.02
2023-07-15T07:23:26.910Z,27.20
2023-07-15T07:25:55.238Z,29.80
2023-07-15T07:28:25.130Z,24.95
2023-07-15T07:30:52.960Z,18.45
2023-07-15T07:33:21.812Z,16.63
2023-07-15T07:35:49.696Z,15.82
2023-07-15T07:38:17.447Z,16.00
2023-07-15T07:40:46.605Z,11.60
2023-07-15T07:43:14.640Z,13.65
2023-07-15T07:45:42.317Z,14.77
2023-07-15T07:48:10.151Z,10.60
2023-07-15T07:50:38.037Z,9.55
2023-07-15T07:53:05.922Z,10.98
2023-07-15T07:55:33.852Z,12.07
2023-07-15T07:58:01.524Z,10.55
2023-07-15T08:00:29.433Z,10.40
2023-07-15T08:02:57.093Z,14.23
2023-07-15T08:05:24.944Z,9.82
2023-07-15T08:07:52.724Z,10.18
2023-07-15T08:10:20.612Z,8.25
2023-07-15T08:12:48.318Z,8.55
2023-07-15T08:15:16.438Z,6.97
2023-07-15T08:17:44.279Z,7.10
2023-07-15T08:20:12.978Z,8.63
2023-07-15T08:22:40.756Z,5.97
2023-07-15T08:25:09.168Z,6.28
2023-07-15T08:27:36.742Z,7.25
2023-07-15T08:30:05.485Z,7.30
2023-07-15T08:32:33.399Z,7.03
2023-07-15T08:35:02.805Z,8.02
2023-07-15T08:37:34.072Z,5.97
2023-07-15T08:40:02.328Z,5.15
2023-07-15T08:42:32.743Z,4.47
2023-07-15T08:45:00.413Z,5.45
2023-07-15T08:47:29.128Z,3.75
2023-07-15T08:49:58.006Z,4.10
2023-07-15T08:52:25.771Z,4.68
2023-07-15T08:54:54.583Z,3.75
2023-07-15T08:57:23.940Z,3.78
2023-07-15T08:59:57.730Z,2.80
2023-07-15T09:02:25.520Z,3.45
2023-07-15T09:04:53.525Z,3.60
2023-07-15T09:07:28.744Z,2.60
2023-07-15T09:09:56.377Z,2.97
2023-07-15T09:12:24.869Z,2.78
2023-07-15T09:14:54.570Z,3.63
2023-07-15T09:17:23.331Z,4.20
2023-07-15T09:19:51.325Z,2.65
2023-07-15T09:22:20.950Z,2.65
2023-07-15T09:24:48.950Z,3.65
2023-07-15T09:27:16.837Z,6.00
2023-07-15T09:29:51.609Z,2.75
2023-07-15T09:32:24.381Z,5.13
2023-07-15T09:34:54.243Z,2.80
2023-07-15T09:37:29.778Z,3.63
2023-07-15T09:40:00.582Z,2.20
2023-07-15T09:42:29.308Z,2.88
2023-07-15T09:44:57.240Z,3.25
2023-07-15T09:47:29.639Z,3.40
2023-07-15T09:49:57.517Z,3.22
2023-07-15T09:52:25.196Z,4.47
2023-07-15T09:54:53.175Z,2.70
2023-07-15T09:57:22.493Z,3.10
2023-07-15T09:59:54.049Z,3.45
2023-07-15T10:02:43.455Z,3.28
2023-07-15T10:05:14.823Z,2.40
2023-07-15T10:07:42.471Z,4.57
2023-07-15T10:10:10.777Z,2.92
2023-07-15T10:12:39.479Z,3.60
2023-07-15T10:15:09.042Z,2.88
2023-07-15T10:17:38.730Z,2.30
2023-07-15T10:20:18.870Z,2.83
2023-07-15T10:22:49.724Z,2.17
2023-07-15T10:25:18.008Z,2.35
2023-07-15T10:27:46.629Z,2.60
2023-07-15T10:30:34.152Z,2.20
2023-07-15T10:48:46.723Z,5.07
2023-07-15T10:51:14.899Z,2.25
2023-07-15T10:53:42.558Z,3.58
2023-07-15T10:56:12.202Z,4.00
2023-07-15T10:58:42.549Z,3.72
2023-07-15T11:01:13.091Z,5.28
2023-07-15T11:03:43.547Z,4.30
2023-07-15T11:06:12.123Z,3.40
2023-07-15T11:08:41.658Z,3.55
2023-07-15T11:11:12.358Z,2.38
2023-07-15T11:13:42.509Z,3.72
2023-07-15T11:16:10.707Z,5.93
2023-07-15T11:18:38.401Z,3.42
2023-07-15T11:21:06.793Z,3.65
2023-07-15T11:23:34.863Z,3.17
2023-07-15T11:26:10.845Z,4.60
2023-07-15T11:28:55.332Z,3.78
2023-07-15T11:31:24.937Z,4.00
2023-07-15T11:33:55.802Z,3.72
2023-07-15T11:36:23.507Z,4.35
2023-07-15T11:38:51.493Z,3.80
2023-07-15T11:41:19.660Z,3.88
2023-07-15T11:43:50.992Z,4.38
2023-07-15T11:46:19.604Z,3.70
2023-07-15T11:48:48.117Z,5.13
2023-07-15T11:51:15.783Z,7.43
2023-07-15T11:53:46.327Z,6.25
2023-07-15T11:56:33.556Z,5.50
2023-07-15T11:59:01.112Z,7.25
2023-07-15T12:01:28.799Z,5.90
2023-07-15T12:03:56.518Z,6.35
2023-07-15T12:06:26.084Z,7.70
2023-07-15T12:09:14.040Z,5.97
2023-07-15T12:11:41.682Z,8.02
2023-07-15T12:14:09.751Z,5.40
2023-07-15T12:16:39.447Z,8.35
2023-07-15T12:19:12.341Z,6.32
2023-07-15T12:21:41.928Z,5.13
2023-07-15T12:24:09.770Z,6.88
2023-07-15T12:26:37.596Z,11.07
2023-07-15T12:29:05.367Z,6.03
2023-07-15T12:31:33.171Z,13.73
2023-07-15T12:34:00.787Z,6.68
2023-07-15T12:36:28.844Z,6.00
2023-07-15T12:38:56.576Z,7.28
2023-07-15T12:41:24.375Z,6.25
2023-07-15T12:43:52.060Z,5.78
2023-07-15T12:46:20.179Z,8.60
2023-07-15T12:48:50.690Z,6.95
2023-07-15T12:51:18.578Z,7.53
2023-07-15T12:53:46.290Z,6.25
2023-07-15T12:56:16.023Z,8.25
2023-07-15T12:58:44.489Z,5.97
2023-07-15T13:01:12.307Z,9.65
2023-07-15T13:03:40.577Z,19.15
2023-07-15T13:06:08.586Z,11.68
2023-07-15T13:08:38.603Z,7.90
2023-07-15T13:11:06.964Z,9.13
2023-07-15T13:13:35.124Z,6.75
2023-07-15T13:16:03.121Z,4.70
2023-07-15T13:18:30.972Z,4.22
2023-07-15T13:20:58.602Z,5.47
2023-07-15T13:23:26.528Z,6.25
2023-07-15T13:25:54.366Z,5.70
2023-07-15T13:28:22.082Z,4.88
2023-07-15T13:30:49.810Z,6.63
2023-07-15T13:33:17.544Z,6.68
2023-07-15T13:35:45.231Z,6.28
2023-07-15T13:38:12.839Z,4.85
2023-07-15T13:40:41.037Z,5.07
2023-07-15T13:43:08.814Z,4.43
2023-07-15T13:45:36.671Z,6.15
2023-07-15T13:48:04.960Z,6.18
2023-07-15T13:50:32.892Z,7.20
2023-07-15T13:53:00.518Z,7.53
2023-07-15T13:55:28.205Z,5.80
2023-07-15T13:57:56.003Z,6.88
2023-07-15T14:00:23.533Z,7.95
2023-07-15T14:05:28.975Z,6.75
2023-07-15T14:07:56.575Z,5.13
2023-07-15T14:10:24.164Z,6.88
2023-07-15T14:12:51.662Z,9.60
2023-07-15T14:15:19.250Z,8.40
2023-07-15T14:17:46.904Z,6.53
2023-07-15T14:20:14.575Z,5.82
2023-07-15T14:22:49.441Z,4.88
2023-07-15T14:25:19.551Z,5.15
2023-07-15T14:27:47.451Z,4.78
2023-07-15T14:30:15.147Z,5.97
2023-07-15T14:32:43.029Z,8.52
2023-07-15T14:35:10.631Z,5.63
2023-07-15T14:37:40.434Z,7.05
2023-07-15T14:40:08.915Z,7.13
2023-07-15T14:42:37.831Z,7.43
2023-07-15T14:45:06.061Z,5.75
2023-07-15T14:47:35.564Z,5.80
2023-07-15T14:50:03.865Z,4.47
2023-07-15T14:52:32.192Z,5.38
2023-07-15T14:55:01.352Z,5.95
2023-07-15T14:57:32.097Z,6.07
2023-07-15T15:00:00.192Z,6.65
2023-07-15T15:02:28.337Z,5.45
2023-07-15T15:04:55.901Z,5.97
2023-07-15T15:07:23.688Z,5.15
2023-07-15T15:09:51.651Z,9.93
2023-07-15T15:12:19.293Z,10.27
2023-07-15T15:14:47.672Z,5.65
2023-07-15T15:17:15.501Z,6.07
2023-07-15T15:19:43.144Z,5.95
2023-07-15T15:22:10.707Z,5.90
2023-07-15T15:24:38.384Z,5.90
2023-07-15T15:27:07.576Z,5.75
2023-07-15T15:29:36.075Z,7.20
2023-07-15T15:32:03.716Z,6.70
2023-07-15T15:34:31.413Z,6.47
2023-07-15T15:36:59.005Z,8.07
2023-07-15T15:39:26.751Z,8.52
2023-07-15T15:41:54.285Z,8.65
2023-07-15T15:44:24.616Z,7.50
2023-07-15T15:46:52.206Z,9.90
2023-07-15T15:49:21.874Z,6.40
2023-07-15T15:51:49.547Z,10.30
2023-07-15T15:54:17.331Z,7.88
2023-07-15T15:56:45.129Z,12.50
2023-07-15T15:59:12.811Z,7.45
2023-07-15T16:01:41.012Z,10.40
2023-07-15T16:04:08.865Z,8.80
2023-07-15T16:06:36.756Z,9.55
2023-07-15T16:09:04.745Z,9.55
2023-07-15T16:11:32.365Z,8.60
2023-07-15T16:14:02.435Z,10.32
2023-07-15T16:16:30.145Z,8.25
2023-07-15T16:18:58.593Z,9.93
2023-07-15T16:21:26.183Z,6.85
2023-07-15T16:23:53.970Z,7.15
2023-07-15T16:26:21.395Z,12.68
2023-07-15T16:28:48.951Z,7.15
2023-07-15T16:31:16.910Z,7.47
2023-07-15T16:33:44.816Z,10.02
2023-07-15T16:36:12.459Z,7.95
2023-07-15T16:38:39.988Z,9.43
2023-07-15T16:41:07.673Z,27.08
2023-07-15T16:43:36.570Z,15.23
2023-07-15T16:46:04.262Z,11.40
2023-07-15T16:48:31.800Z,8.35
2023-07-15T16:50:59.785Z,10.30
2023-07-15T16:53:27.499Z,9.05
2023-07-15T16:55:56.385Z,11.27
2023-07-15T16:58:24.196Z,37.05
2023-07-15T17:00:53.728Z,7.47
2023-07-15T17:03:21.599Z,32.80
2023-07-15T17:05:49.301Z,86.95
2023-07-15T17:08:17.020Z,134.38
2023-07-15T17:10:44.801Z,29.60
2023-07-15T17:13:14.112Z,42.97
2023-07-15T17:15:41.860Z,27.90
2023-07-15T17:18:09.617Z,21.95
2023-07-15T17:20:37.558Z,39.05
2023-07-15T17:23:05.341Z,14.95
2023-07-15T17:25:32.886Z,17.50
2023-07-15T17:28:00.309Z,9.65
2023-07-15T17:30:27.906Z,10.45
2023-07-15T17:32:55.449Z,7.40
2023-07-15T17:35:23.176Z,8.07
2023-07-15T17:37:53.020Z,10.55
2023-07-15T17:40:20.733Z,8.88
2023-07-15T17:42:48.581Z,9.23
2023-07-15T17:45:16.336Z,8.55
2023-07-15T17:47:44.028Z,7.95
2023-07-15T17:50:11.619Z,8.98
2023-07-15T17:52:39.268Z,7.72
2023-07-15T17:55:17.396Z,8.30
2023-07-15T17:57:51.389Z,10.95
2023-07-15T18:00:19.134Z,11.07
2023-07-15T18:02:46.853Z,8.23
2023-07-15T18:05:14.385Z,11.15
2023-07-15T18:07:41.961Z,10.27
2023-07-15T18:10:10.694Z,9.95
2023-07-15T18:12:38.215Z,8.95
2023-07-15T18:15:06.263Z,13.55
2023-07-15T18:17:33.714Z,9.32
2023-07-15T18:20:01.234Z,9.13
2023-07-15T18:22:29.495Z,11.05
2023-07-15T18:24:57.113Z,11.40
2023-07-15T18:27:24.724Z,10.68
2023-07-15T18:29:52.310Z,10.57
2023-07-15T18:32:19.948Z,10.30
2023-07-15T18:34:47.656Z,10.00
2023-07-15T18:37:15.297Z,10.52
2023-07-15T18:39:42.789Z,11.10
2023-07-15T18:42:10.520Z,9.95
2023-07-15T18:44:38.098Z,10.18
2023-07-15T18:47:06.015Z,11.40
2023-07-15T18:49:33.526Z,12.32
2023-07-15T18:52:01.430Z,13.07
2023-07-15T18:54:28.980Z,12.68
2023-07-15T18:57:04.823Z,15.30
2023-07-15T18:59:40.545Z,10.88
2023-07-15T19:02:08.478Z,12.88
2023-07-15T19:04:36.297Z,11.43
2023-07-15T19:07:04.185Z,12.90
2023-07-15T19:09:31.746Z,14.27
2023-07-15T19:11:59.176Z,12.95
2023-07-15T19:14:26.868Z,14.60
2023-07-15T19:16:54.570Z,14.05
2023-07-15T19:19:22.563Z,15.70
2023-07-15T19:21:50.062Z,17.27
2023-07-15T19:24:17.816Z,16.98
2023-07-15T19:26:45.365Z,16.02
2023-07-15T19:29:12.923Z,15.10
2023-07-15T19:31:40.597Z,16.98
2023-07-15T19:34:08.222Z,15.43
2023-07-15T19:36:35.977Z,14.98
2023-07-15T19:39:06.372Z,14.05
2023-07-15T19:41:35.576Z,15.77
2023-07-15T19:44:03.250Z,16.13
2023-07-15T19:46:30.913Z,15.73
2023-07-15T19:48:58.427Z,16.20
2023-07-15T19:51:35.658Z,21.13
2023-07-15T19:54:12.332Z,16.95
2023-07-15T19:56:41.003Z,14.52
2023-07-15T19:59:08.556Z,12.60
2023-07-15T20:01:36.184Z,14.25
2023-07-15T20:04:04.701Z,12.73
2023-07-15T20:06:32.394Z,13.02
2023-07-15T20:09:00.951Z,14.82
2023-07-15T20:11:28.424Z,14.93
2023-07-15T20:13:55.880Z,15.05
2023-07-15T20:16:23.404Z,15.68
2023-07-15T20:18:50.920Z,15.82
2023-07-15T20:21:18.522Z,17.63
2023-07-15T20:23:46.206Z,16.15
2023-07-15T20:26:14.118Z,14.38
2023-07-15T20:28:41.877Z,15.90
2023-07-15T20:31:09.375Z,13.85
2023-07-15T20:33:36.893Z,14.73
2023-07-15T20:36:04.727Z,14.40
2023-07-15T20:38:32.195Z,13.25
2023-07-15T20:41:01.309Z,13.90
2023-07-15T20:43:30.530Z,15.50
2023-07-15T20:45:58.040Z,14.07
2023-07-15T20:48:26.911Z,13.52
2023-07-15T20:50:54.375Z,13.57
2023-07-15T20:53:21.933Z,15.85
2023-07-15T20:55:49.496Z,15.40
2023-07-15T20:58:17.058Z,12.75
2023-07-15T21:00:51.989Z,14.50
2023-07-15T21:03:20.120Z,12.75
2023-07-15T21:06:05.167Z,14.05
2023-07-15T21:08:32.934Z,13.48
2023-07-15T21:11:01.666Z,13.93
2023-07-15T21:13:29.506Z,13.32
2023-07-15T21:15:57.338Z,13.18
2023-07-15T21:18:25.526Z,14.43
2023-07-15T21:20:53.614Z,12.95
2023-07-15T21:23:21.412Z,15.85
2023-07-15T21:25:49.464Z,14.55
2023-07-15T21:28:22.130Z,16.52
2023-07-15T21:30:49.812Z,12.15
2023-07-15T21:33:17.271Z,16.60
2023-07-15T21:35:44.762Z,14.63
2023-07-15T21:38:12.266Z,16.48
2023-07-15T21:40:45.138Z,16.25
2023-07-15T21:43:14.518Z,15.13
2023-07-15T21:45:42.763Z,21.33
2023-07-15T21:48:10.285Z,16.30
2023-07-15T21:50:37.951Z,19.48
2023-07-15T21:53:05.390Z,19.55
2023-07-15T21:55:33.476Z,13.95
2023-07-15T21:58:01.223Z,17.52
2023-07-15T22:00:28.675Z,16.25
2023-07-15T22:02:56.267Z,20.23
2023-07-15T22:05:23.768Z,18.17
2023-07-15T22:07:51.251Z,15.63
2023-07-15T22:10:18.877Z,25.20
2023-07-15T22:12:46.848Z,17.73
2023-07-15T22:15:14.271Z,16.23
2023-07-15T22:17:41.839Z,19.02
2023-07-15T22:20:09.606Z,17.30
2023-07-15T22:22:37.543Z,13.15
2023-07-15T22:25:05.416Z,11.40
2023-07-15T22:27:32.798Z,12.68
2023-07-15T22:30:00.203Z,16.70
2023-07-15T22:32:27.896Z,12.68
2023-07-15T22:34:55.392Z,15.90
2023-07-15T22:37:23.005Z,12.30
2023-07-15T22:39:50.397Z,10.95
2023-07-15T22:42:20.077Z,10.40
2023-07-15T22:44:47.897Z,17.00
2023-07-15T22:47:15.393Z,13.32
2023-07-15T22:49:43.942Z,21.42
2023-07-15T22:52:11.440Z,17.38
2023-07-15T22:54:38.864Z,15.68
2023-07-15T22:57:08.184Z,17.60
2023-07-15T22:59:35.748Z,13.32
2023-07-15T23:02:03.581Z,12.65
2023-07-15T23:04:30.947Z,17.00
2023-07-15T23:07:03.090Z,14.95
2023-07-15T23:09:30.741Z,14.10
2023-07-15T23:11:58.093Z,16.63
2023-07-15T23:14:25.446Z,13.48
2023-07-15T23:16:52.900Z,14.18
2023-07-15T23:19:21.620Z,22.02
2023-07-15T23:21:49.132Z,16.15
2023-07-15T23:24:16.833Z,18.50
2023-07-15T23:26:44.247Z,17.55
2023-07-15T23:29:11.701Z,18.30
2023-07-15T23:31:39.232Z,19.23
2023-07-15T23:34:06.755Z,16.02
2023-07-15T23:36:34.187Z,16.35
2023-07-15T23:39:01.552Z,22.35
2023-07-15T23:41:29.440Z,21.90
2023-07-15T23:43:56.857Z,20.05
2023-07-15T23:46:24.324Z,19.63
2023-07-15T23:48:51.711Z,18.65
2023-07-15T23:51:19.194Z,18.17
2023-07-15T23:53:46.654Z,22.00
2023-07-15T23:56:14.332Z,24.00
2023-07-15T23:58:41.913Z,23.13
